sensor_id;sensor_type;location;lat;lon;timestamp;pressure;altitude;pressure_sealevel;temperature;humidity
12203;BME280;6164;42.178;24.622;2023-07-09T00:02:09;99806.44;;;21.58;100.00
12203;BME280;6164;42.178;24.622;2023-07-09T00:04:38;99807.81;;;21.60;100.00
12203;BME280;6164;42.178;24.622;2023-07-09T00:07:05;99801.75;;;21.65;100.00
12203;BME280;6164;42.178;24.622;2023-07-09T00:09:31;99801.06;;;21.69;100.00
12203;BME280;6164;42.178;24.622;2023-07-09T00:11:58;99798.94;;;21.71;100.00
12203;BME280;6164;42.178;24.622;2023-07-09T00:14:24;99809.69;;;21.71;100.00
12203;BME280;6164;42.178;24.622;2023-07-09T00:16:51;99807.34;;;21.63;100.00
12203;BME280;6164;42.178;24.622;2023-07-09T00:19:18;99810.50;;;21.60;100.00
12203;BME280;6164;42.178;24.622;2023-07-09T00:21:47;99816.22;;;21.41;100.00
12203;BME280;6164;42.178;24.622;2023-07-09T00:24:14;99814.72;;;21.33;100.00
12203;BME280;6164;42.178;24.622;2023-07-09T00:26:41;99803.97;;;21.33;100.00
12203;BME280;6164;42.178;24.622;2023-07-09T00:29:08;99812.34;;;21.25;100.00
12203;BME280;6164;42.178;24.622;2023-07-09T00:31:34;99808.63;;;21.26;100.00
12203;BME280;6164;42.178;24.622;2023-07-09T00:34:06;99807.91;;;21.19;100.00
12203;BME280;6164;42.178;24.622;2023-07-09T00:36:33;99806.88;;;21.20;100.00
12203;BME280;6164;42.178;24.622;2023-07-09T00:39:01;99805.81;;;21.21;100.00
12203;BME280;6164;42.178;24.622;2023-07-09T00:41:31;99808.97;;;21.18;100.00
12203;BME280;6164;42.178;24.622;2023-07-09T00:43:58;99804.63;;;21.17;100.00
12203;BME280;6164;42.178;24.622;2023-07-09T00:49:11;99799.50;;;21.16;100.00
12203;BME280;6164;42.178;24.622;2023-07-09T00:51:45;99799.88;;;21.19;100.00
12203;BME280;6164;42.178;24.622;2023-07-09T00:54:18;99803.00;;;21.16;100.00
12203;BME280;6164;42.178;24.622;2023-07-09T00:56:46;99800.34;;;21.16;100.00
12203;BME280;6164;42.178;24.622;2023-07-09T00:59:17;99804.63;;;21.17;100.00
12203;BME280;6164;42.178;24.622;2023-07-09T01:01:48;99806.28;;;21.18;100.00
12203;BME280;6164;42.178;24.622;2023-07-09T01:04:15;99792.63;;;21.20;100.00
12203;BME280;6164;42.178;24.622;2023-07-09T01:06:44;99798.84;;;21.20;100.00
12203;BME280;6164;42.178;24.622;2023-07-09T01:09:11;99795.19;;;21.15;100.00
12203;BME280;6164;42.178;24.622;2023-07-09T01:11:39;99798.00;;;21.08;100.00
12203;BME280;6164;42.178;24.622;2023-07-09T01:14:06;99795.66;;;21.12;100.00
12203;BME280;6164;42.178;24.622;2023-07-09T01:16:34;99802.66;;;21.13;100.00
12203;BME280;6164;42.178;24.622;2023-07-09T01:19:02;99808.25;;;21.11;100.00
12203;BME280;6164;42.178;24.622;2023-07-09T01:21:30;99809.88;;;21.12;100.00
12203;BME280;6164;42.178;24.622;2023-07-09T01:23:57;99803.47;;;21.13;100.00
12203;BME280;6164;42.178;24.622;2023-07-09T01:26:25;99812.56;;;21.12;100.00
12203;BME280;6164;42.178;24.622;2023-07-09T01:28:52;99809.75;;;21.07;100.00
12203;BME280;6164;42.178;24.622;2023-07-09T01:31:19;99812.91;;;21.04;100.00
12203;BME280;6164;42.178;24.622;2023-07-09T01:33:47;99817.69;;;21.02;100.00
12203;BME280;6164;42.178;24.622;2023-07-09T01:36:15;99807.16;;;21.01;100.00
12203;BME280;6164;42.178;24.622;2023-07-09T01:38:43;99814.44;;;21.00;100.00
12203;BME280;6164;42.178;24.622;2023-07-09T01:41:10;99811.00;;;20.93;100.00
12203;BME280;6164;42.178;24.622;2023-07-09T01:43:38;99818.91;;;20.88;100.00
12203;BME280;6164;42.178;24.622;2023-07-09T01:46:06;99808.13;;;20.76;100.00
12203;BME280;6164;42.178;24.622;2023-07-09T01:48:33;99821.19;;;20.73;100.00
12203;BME280;6164;42.178;24.622;2023-07-09T01:51:06;99815.47;;;20.69;100.00
12203;BME280;6164;42.178;24.622;2023-07-09T01:53:32;99819.06;;;20.63;100.00
12203;BME280;6164;42.178;24.622;2023-07-09T01:56:02;99820.78;;;20.58;100.00
12203;BME280;6164;42.178;24.622;2023-07-09T01:58:29;99822.53;;;20.52;100.00
12203;BME280;6164;42.178;24.622;2023-07-09T02:00:56;99822.75;;;20.51;100.00
12203;BME280;6164;42.178;24.622;2023-07-09T02:03:23;99823.03;;;20.43;100.00
12203;BME280;6164;42.178;24.622;2023-07-09T02:05:52;99824.09;;;20.42;100.00
12203;BME280;6164;42.178;24.622;2023-07-09T02:08:18;99820.00;;;20.39;100.00
12203;BME280;6164;42.178;24.622;2023-07-09T02:10:47;99826.88;;;20.35;100.00
12203;BME280;6164;42.178;24.622;2023-07-09T02:13:15;99826.63;;;20.37;100.00
12203;BME280;6164;42.178;24.622;2023-07-09T02:15:42;99819.66;;;20.36;100.00
12203;BME280;6164;42.178;24.622;2023-07-09T02:18:09;99824.41;;;20.34;100.00
12203;BME280;6164;42.178;24.622;2023-07-09T02:20:35;99826.03;;;20.35;100.00
12203;BME280;6164;42.178;24.622;2023-07-09T02:23:02;99836.19;;;20.33;100.00
12203;BME280;6164;42.178;24.622;2023-07-09T02:25:29;99828.94;;;20.33;100.00
12203;BME280;6164;42.178;24.622;2023-07-09T02:27:55;99832.44;;;20.34;100.00
12203;BME280;6164;42.178;24.622;2023-07-09T02:30:23;99836.19;;;20.33;100.00
12203;BME280;6164;42.178;24.622;2023-07-09T02:32:50;99833.69;;;20.31;100.00
12203;BME280;6164;42.178;24.622;2023-07-09T02:35:19;99836.03;;;20.28;100.00
12203;BME280;6164;42.178;24.622;2023-07-09T02:37:45;99835.81;;;20.29;100.00
12203;BME280;6164;42.178;24.622;2023-07-09T02:40:12;99838.50;;;20.29;100.00
12203;BME280;6164;42.178;24.622;2023-07-09T02:42:39;99834.38;;;20.27;100.00
12203;BME280;6164;42.178;24.622;2023-07-09T02:45:06;99838.91;;;20.26;100.00
12203;BME280;6164;42.178;24.622;2023-07-09T02:47:34;99846.41;;;20.24;100.00
12203;BME280;6164;42.178;24.622;2023-07-09T02:50:00;99851.75;;;20.24;100.00
12203;BME280;6164;42.178;24.622;2023-07-09T02:52:28;99850.09;;;20.23;100.00
12203;BME280;6164;42.178;24.622;2023-07-09T02:54:54;99857.75;;;20.20;100.00
12203;BME280;6164;42.178;24.622;2023-07-09T02:57:21;99858.38;;;20.22;100.00
12203;BME280;6164;42.178;24.622;2023-07-09T02:59:47;99854.50;;;20.18;100.00
12203;BME280;6164;42.178;24.622;2023-07-09T03:02:14;99851.59;;;20.19;100.00
12203;BME280;6164;42.178;24.622;2023-07-09T03:04:41;99855.91;;;20.20;100.00
12203;BME280;6164;42.178;24.622;2023-07-09T03:07:08;99860.03;;;20.23;100.00
12203;BME280;6164;42.178;24.622;2023-07-09T03:09:34;99861.66;;;20.24;100.00
12203;BME280;6164;42.178;24.622;2023-07-09T03:12:01;99868.06;;;20.23;100.00
12203;BME280;6164;42.178;24.622;2023-07-09T03:14:27;99870.16;;;20.21;100.00
12203;BME280;6164;42.178;24.622;2023-07-09T03:16:54;99865.38;;;20.23;100.00
12203;BME280;6164;42.178;24.622;2023-07-09T03:19:21;99869.91;;;20.22;100.00
12203;BME280;6164;42.178;24.622;2023-07-09T03:21:49;99870.16;;;20.21;100.00
12203;BME280;6164;42.178;24.622;2023-07-09T03:24:15;99869.91;;;20.22;100.00
12203;BME280;6164;42.178;24.622;2023-07-09T03:26:43;99865.81;;;20.20;100.00
12203;BME280;6164;42.178;24.622;2023-07-09T03:29:10;99871.31;;;20.25;100.00
12203;BME280;6164;42.178;24.622;2023-07-09T03:31:36;99868.22;;;20.28;100.00
12203;BME280;6164;42.178;24.622;2023-07-09T03:34:03;99866.09;;;20.30;100.00
12203;BME280;6164;42.178;24.622;2023-07-09T03:36:30;99882.50;;;20.22;100.00
12203;BME280;6164;42.178;24.622;2023-07-09T03:38:58;99875.06;;;20.24;100.00
12203;BME280;6164;42.178;24.622;2023-07-09T03:41:24;99876.91;;;20.23;100.00
12203;BME280;6164;42.178;24.622;2023-07-09T03:43:51;99880.63;;;20.22;100.00
12203;BME280;6164;42.178;24.622;2023-07-09T03:46:18;99876.25;;;20.28;100.00
12203;BME280;6164;42.178;24.622;2023-07-09T03:48:45;99873.56;;;20.28;100.00
12203;BME280;6164;42.178;24.622;2023-07-09T03:51:11;99878.88;;;20.34;100.00
12203;BME280;6164;42.178;24.622;2023-07-09T03:53:38;99875.50;;;20.39;100.00
12203;BME280;6164;42.178;24.622;2023-07-09T03:56:06;99878.78;;;20.41;100.00
12203;BME280;6164;42.178;24.622;2023-07-09T03:58:32;99889.44;;;20.47;100.00
12203;BME280;6164;42.178;24.622;2023-07-09T04:00:59;99883.00;;;20.48;100.00
12203;BME280;6164;42.178;24.622;2023-07-09T04:03:25;99876.41;;;20.51;100.00
12203;BME280;6164;42.178;24.622;2023-07-09T04:05:51;99893.19;;;20.58;100.00
12203;BME280;6164;42.178;24.622;2023-07-09T04:08:18;99879.47;;;20.66;100.00
12203;BME280;6164;42.178;24.622;2023-07-09T04:10:45;99884.75;;;20.72;100.00
12203;BME280;6164;42.178;24.622;2023-07-09T04:13:13;99884.25;;;20.82;100.00
12203;BME280;6164;42.178;24.622;2023-07-09T04:15:39;99883.69;;;20.91;100.00
12203;BME280;6164;42.178;24.622;2023-07-09T04:18:06;99889.06;;;20.91;100.00
12203;BME280;6164;42.178;24.622;2023-07-09T04:20:32;99899.09;;;20.96;100.00
12203;BME280;6164;42.178;24.622;2023-07-09T04:23:00;99890.75;;;21.04;100.00
12203;BME280;6164;42.178;24.622;2023-07-09T04:25:26;99889.16;;;21.15;100.00
12203;BME280;6164;42.178;24.622;2023-07-09T04:27:53;99894.78;;;21.25;100.00
12203;BME280;6164;42.178;24.622;2023-07-09T04:30:21;99898.28;;;21.25;100.00
12203;BME280;6164;42.178;24.622;2023-07-09T04:32:47;99897.16;;;21.33;100.00
12203;BME280;6164;42.178;24.622;2023-07-09T04:35:14;99897.78;;;21.46;100.00
12203;BME280;6164;42.178;24.622;2023-07-09T04:37:40;99901.72;;;21.55;100.00
12203;BME280;6164;42.178;24.622;2023-07-09T04:40:08;99902.56;;;21.67;100.00
12203;BME280;6164;42.178;24.622;2023-07-09T04:42:36;99907.84;;;21.74;100.00
12203;BME280;6164;42.178;24.622;2023-07-09T04:45:02;99899.94;;;21.79;100.00
12203;BME280;6164;42.178;24.622;2023-07-09T04:47:30;99910.44;;;21.92;100.00
12203;BME280;6164;42.178;24.622;2023-07-09T04:49:57;99905.53;;;21.89;100.00
12203;BME280;6164;42.178;24.622;2023-07-09T04:52:23;99904.13;;;21.98;100.00
12203;BME280;6164;42.178;24.622;2023-07-09T04:54:50;99907.41;;;22.00;100.00
12203;BME280;6164;42.178;24.622;2023-07-09T04:57:16;99907.63;;;22.10;100.00
12203;BME280;6164;42.178;24.622;2023-07-09T04:59:43;99901.91;;;22.18;100.00
12203;BME280;6164;42.178;24.622;2023-07-09T05:02:10;99903.88;;;22.23;100.00
12203;BME280;6164;42.178;24.622;2023-07-09T05:04:38;99902.25;;;22.22;100.00
12203;BME280;6164;42.178;24.622;2023-07-09T05:07:05;99896.63;;;22.23;100.00
12203;BME280;6164;42.178;24.622;2023-07-09T05:09:32;99901.41;;;22.33;100.00
12203;BME280;6164;42.178;24.622;2023-07-09T05:11:59;99908.31;;;22.40;98.66
12203;BME280;6164;42.178;24.622;2023-07-09T05:14:26;99916.34;;;22.52;100.00
12203;BME280;6164;42.178;24.622;2023-07-09T05:16:52;99908.28;;;22.63;100.00
12203;BME280;6164;42.178;24.622;2023-07-09T05:19:19;99915.88;;;22.66;97.64
12203;BME280;6164;42.178;24.622;2023-07-09T05:21:47;99918.66;;;22.71;95.21
12203;BME280;6164;42.178;24.622;2023-07-09T05:24:13;99916.88;;;22.77;95.18
12203;BME280;6164;42.178;24.622;2023-07-09T05:26:40;99919.78;;;22.87;95.47
12203;BME280;6164;42.178;24.622;2023-07-09T05:29:06;99924.22;;;22.93;92.37
12203;BME280;6164;42.178;24.622;2023-07-09T05:31:33;99919.72;;;22.98;90.43
12203;BME280;6164;42.178;24.622;2023-07-09T05:34:01;99918.44;;;23.01;91.63
12203;BME280;6164;42.178;24.622;2023-07-09T05:36:28;99914.03;;;23.11;91.02
12203;BME280;6164;42.178;24.622;2023-07-09T05:38:56;99914.72;;;23.18;92.20
12203;BME280;6164;42.178;24.622;2023-07-09T05:41:22;99909.31;;;23.30;93.39
12203;BME280;6164;42.178;24.622;2023-07-09T05:43:49;99913.34;;;23.44;90.64
12203;BME280;6164;42.178;24.622;2023-07-09T05:46:16;99904.34;;;23.55;89.17
12203;BME280;6164;42.178;24.622;2023-07-09T05:48:42;99904.19;;;23.62;89.84
12203;BME280;6164;42.178;24.622;2023-07-09T05:51:09;99917.59;;;23.73;86.29
12203;BME280;6164;42.178;24.622;2023-07-09T05:53:35;99909.09;;;23.81;84.55
12203;BME280;6164;42.178;24.622;2023-07-09T05:56:03;99906.72;;;23.85;85.20
12203;BME280;6164;42.178;24.622;2023-07-09T05:58:30;99908.59;;;24.01;85.00
12203;BME280;6164;42.178;24.622;2023-07-09T06:00:56;99896.50;;;24.03;82.67
12203;BME280;6164;42.178;24.622;2023-07-09T06:03:23;99902.53;;;24.10;80.16
12203;BME280;6164;42.178;24.622;2023-07-09T06:05:50;99893.53;;;24.21;79.68
12203;BME280;6164;42.178;24.622;2023-07-09T06:08:17;99889.50;;;24.24;79.99
12203;BME280;6164;42.178;24.622;2023-07-09T06:10:50;99884.75;;;24.31;80.57
12203;BME280;6164;42.178;24.622;2023-07-09T06:13:18;99890.84;;;24.43;78.02
12203;BME280;6164;42.178;24.622;2023-07-09T06:15:45;99886.63;;;24.52;76.91
12203;BME280;6164;42.178;24.622;2023-07-09T06:18:12;99883.28;;;24.66;77.63
12203;BME280;6164;42.178;24.622;2023-07-09T06:20:38;99888.47;;;24.68;74.67
12203;BME280;6164;42.178;24.622;2023-07-09T06:23:05;99884.06;;;24.84;76.24
12203;BME280;6164;42.178;24.622;2023-07-09T06:25:31;99887.97;;;24.98;74.99
12203;BME280;6164;42.178;24.622;2023-07-09T06:27:58;99894.06;;;25.10;72.58
12203;BME280;6164;42.178;24.622;2023-07-09T06:30:25;99907.63;;;25.15;71.47
12203;BME280;6164;42.178;24.622;2023-07-09T06:32:52;99902.53;;;25.18;70.42
12203;BME280;6164;42.178;24.622;2023-07-09T06:35:18;99888.75;;;25.20;72.24
12203;BME280;6164;42.178;24.622;2023-07-09T06:37:45;99894.22;;;25.25;69.29
12203;BME280;6164;42.178;24.622;2023-07-09T06:40:11;99903.69;;;25.27;69.11
12203;BME280;6164;42.178;24.622;2023-07-09T06:42:38;99895.44;;;25.39;70.53
12203;BME280;6164;42.178;24.622;2023-07-09T06:45:05;99885.84;;;25.53;70.85
12203;BME280;6164;42.178;24.622;2023-07-09T06:47:33;99891.13;;;25.69;70.40
12203;BME280;6164;42.178;24.622;2023-07-09T06:49:59;99891.16;;;25.74;68.06
12203;BME280;6164;42.178;24.622;2023-07-09T06:52:26;99892.50;;;25.77;67.84
12203;BME280;6164;42.178;24.622;2023-07-09T06:54:52;99894.75;;;25.90;67.48
12203;BME280;6164;42.178;24.622;2023-07-09T06:57:18;99892.06;;;25.90;66.45
12203;BME280;6164;42.178;24.622;2023-07-09T06:59:45;99902.53;;;25.81;65.98
12203;BME280;6164;42.178;24.622;2023-07-09T07:02:11;99895.88;;;25.94;66.89
12203;BME280;6164;42.178;24.622;2023-07-09T07:04:39;99903.47;;;25.97;65.49
12203;BME280;6164;42.178;24.622;2023-07-09T07:07:06;99894.63;;;26.07;65.50
12203;BME280;6164;42.178;24.622;2023-07-09T07:09:34;99901.72;;;26.13;64.39
12203;BME280;6164;42.178;24.622;2023-07-09T07:12:00;99901.19;;;26.16;63.49
12203;BME280;6164;42.178;24.622;2023-07-09T07:14:27;99899.81;;;26.13;64.12
12203;BME280;6164;42.178;24.622;2023-07-09T07:16:53;99903.66;;;26.22;63.20
12203;BME280;6164;42.178;24.622;2023-07-09T07:19:22;99882.34;;;26.31;63.57
12203;BME280;6164;42.178;24.622;2023-07-09T07:21:49;99895.13;;;26.45;64.75
12203;BME280;6164;42.178;24.622;2023-07-09T07:24:16;99891.38;;;26.56;62.84
12203;BME280;6164;42.178;24.622;2023-07-09T07:26:42;99899.19;;;26.53;62.05
12203;BME280;6164;42.178;24.622;2023-07-09T07:29:09;99888.19;;;26.69;63.39
12203;BME280;6164;42.178;24.622;2023-07-09T07:31:35;99887.97;;;26.86;62.94
12203;BME280;6164;42.178;24.622;2023-07-09T07:34:02;99896.91;;;26.81;60.25
12203;BME280;6164;42.178;24.622;2023-07-09T07:36:28;99899.38;;;26.88;59.59
12203;BME280;6164;42.178;24.622;2023-07-09T07:38:56;99890.13;;;26.89;59.31
12203;BME280;6164;42.178;24.622;2023-07-09T07:41:23;99885.56;;;26.94;59.94
12203;BME280;6164;42.178;24.622;2023-07-09T07:43:49;99896.38;;;26.84;58.40
12203;BME280;6164;42.178;24.622;2023-07-09T07:46:16;99880.16;;;26.99;60.70
12203;BME280;6164;42.178;24.622;2023-07-09T07:48:42;99873.63;;;26.95;60.86
12203;BME280;6164;42.178;24.622;2023-07-09T07:51:09;99883.44;;;27.11;60.40
12203;BME280;6164;42.178;24.622;2023-07-09T07:53:36;99894.78;;;26.98;57.65
12203;BME280;6164;42.178;24.622;2023-07-09T07:56:04;99884.78;;;27.14;58.63
12203;BME280;6164;42.178;24.622;2023-07-09T07:58:30;99895.63;;;27.24;57.08
12203;BME280;6164;42.178;24.622;2023-07-09T08:00:57;99880.75;;;27.32;57.48
12203;BME280;6164;42.178;24.622;2023-07-09T08:03:24;99896.22;;;27.31;55.86
12203;BME280;6164;42.178;24.622;2023-07-09T08:05:51;99888.06;;;27.26;56.96
12203;BME280;6164;42.178;24.622;2023-07-09T08:08:17;99896.25;;;27.41;55.97
12203;BME280;6164;42.178;24.622;2023-07-09T08:10:44;99888.34;;;27.45;56.14
12203;BME280;6164;42.178;24.622;2023-07-09T08:13:12;99887.84;;;27.53;55.53
12203;BME280;6164;42.178;24.622;2023-07-09T08:15:38;99895.97;;;27.58;54.15
12203;BME280;6164;42.178;24.622;2023-07-09T08:18:05;99910.06;;;27.65;53.37
12203;BME280;6164;42.178;24.622;2023-07-09T08:20:31;99909.78;;;27.61;53.34
12203;BME280;6164;42.178;24.622;2023-07-09T08:22:59;99886.47;;;27.75;54.68
12203;BME280;6164;42.178;24.622;2023-07-09T08:25:25;99897.31;;;27.90;52.33
12203;BME280;6164;42.178;24.622;2023-07-09T08:27:52;99897.31;;;27.95;51.86
12203;BME280;6164;42.178;24.622;2023-07-09T08:30:20;99900.53;;;28.02;51.64
12203;BME280;6164;42.178;24.622;2023-07-09T08:32:46;99922.53;;;27.96;50.19
12203;BME280;6164;42.178;24.622;2023-07-09T08:35:13;99889.44;;;27.99;52.18
12203;BME280;6164;42.178;24.622;2023-07-09T08:37:40;99883.97;;;28.14;52.36
12203;BME280;6164;42.178;24.622;2023-07-09T08:40:08;99890.75;;;28.16;51.60
12203;BME280;6164;42.178;24.622;2023-07-09T08:42:38;99904.88;;;28.23;49.99
12203;BME280;6164;42.178;24.622;2023-07-09T08:45:13;99890.38;;;28.48;50.32
12203;BME280;6164;42.178;24.622;2023-07-09T08:47:52;99905.56;;;28.59;49.34
12203;BME280;6164;42.178;24.622;2023-07-09T08:50:24;99905.56;;;28.64;48.94
12203;BME280;6164;42.178;24.622;2023-07-09T08:52:51;99894.94;;;28.68;49.97
12203;BME280;6164;42.178;24.622;2023-07-09T08:55:20;99879.34;;;28.83;50.41
12203;BME280;6164;42.178;24.622;2023-07-09T08:57:50;99909.47;;;28.97;47.80
12203;BME280;6164;42.178;24.622;2023-07-09T09:00:28;99932.63;;;28.89;47.54
12203;BME280;6164;42.178;24.622;2023-07-09T09:02:58;99934.19;;;28.95;46.55
12203;BME280;6164;42.178;24.622;2023-07-09T09:05:25;99966.28;;;28.93;44.06
12203;BME280;6164;42.178;24.622;2023-07-09T09:07:56;99956.19;;;29.04;45.17
12203;BME280;6164;42.178;24.622;2023-07-09T09:10:28;99941.69;;;29.23;45.59
12203;BME280;6164;42.178;24.622;2023-07-09T09:13:02;99951.66;;;29.38;45.12
12203;BME280;6164;42.178;24.622;2023-07-09T09:15:32;99978.69;;;29.19;43.65
12203;BME280;6164;42.178;24.622;2023-07-09T09:18:12;99962.81;;;29.36;44.13
12203;BME280;6164;42.178;24.622;2023-07-09T09:20:42;99976.06;;;29.48;44.06
12203;BME280;6164;42.178;24.622;2023-07-09T09:23:11;99985.38;;;29.42;42.72
12203;BME280;6164;42.178;24.622;2023-07-09T09:25:40;99977.56;;;29.64;44.12
12203;BME280;6164;42.178;24.622;2023-07-09T09:28:10;99978.41;;;29.64;43.68
12203;BME280;6164;42.178;24.622;2023-07-09T09:30:36;99997.31;;;29.41;42.90
12203;BME280;6164;42.178;24.622;2023-07-09T09:33:06;100001.44;;;29.38;42.11
12203;BME280;6164;42.178;24.622;2023-07-09T09:35:34;100010.03;;;29.55;42.07
12203;BME280;6164;42.178;24.622;2023-07-09T09:38:01;100014.34;;;29.67;42.16
12203;BME280;6164;42.178;24.622;2023-07-09T09:40:29;100022.19;;;29.73;41.97
12203;BME280;6164;42.178;24.622;2023-07-09T09:42:59;100019.28;;;29.98;41.69
12203;BME280;6164;42.178;24.622;2023-07-09T09:45:26;100007.00;;;30.01;42.27
12203;BME280;6164;42.178;24.622;2023-07-09T09:47:57;100039.91;;;30.04;40.34
12203;BME280;6164;42.178;24.622;2023-07-09T09:50:24;100024.94;;;30.02;41.10
12203;BME280;6164;42.178;24.622;2023-07-09T09:52:53;100007.28;;;29.99;41.50
12203;BME280;6164;42.178;24.622;2023-07-09T09:55:22;100032.53;;;29.71;41.19
12203;BME280;6164;42.178;24.622;2023-07-09T09:57:49;100031.06;;;29.84;40.74
12203;BME280;6164;42.178;24.622;2023-07-09T10:00:16;100028.19;;;30.04;40.94
12203;BME280;6164;42.178;24.622;2023-07-09T10:02:43;100030.25;;;30.17;40.06
12203;BME280;6164;42.178;24.622;2023-07-09T10:05:11;100020.66;;;30.29;41.00
12203;BME280;6164;42.178;24.622;2023-07-09T10:07:39;100023.38;;;30.29;40.83
12203;BME280;6164;42.178;24.622;2023-07-09T10:10:10;100023.78;;;30.41;39.60
12203;BME280;6164;42.178;24.622;2023-07-09T10:12:39;100016.88;;;30.54;40.71
12203;BME280;6164;42.178;24.622;2023-07-09T10:15:13;100036.63;;;30.41;39.85
12203;BME280;6164;42.178;24.622;2023-07-09T10:17:47;100047.19;;;30.47;38.86
12203;BME280;6164;42.178;24.622;2023-07-09T10:20:21;100036.34;;;30.66;39.41
12203;BME280;6164;42.178;24.622;2023-07-09T10:22:50;100040.59;;;30.77;39.68
12203;BME280;6164;42.178;24.622;2023-07-09T10:25:23;100028.94;;;30.71;39.16
12203;BME280;6164;42.178;24.622;2023-07-09T10:28:03;100045.56;;;30.70;39.43
12203;BME280;6164;42.178;24.622;2023-07-09T10:30:37;100042.28;;;30.73;39.31
12203;BME280;6164;42.178;24.622;2023-07-09T10:33:07;100020.38;;;31.07;40.13
12203;BME280;6164;42.178;24.622;2023-07-09T10:35:37;100058.50;;;31.12;37.78
12203;BME280;6164;42.178;24.622;2023-07-09T10:38:21;100051.56;;;31.19;38.57
12203;BME280;6164;42.178;24.622;2023-07-09T10:40:53;100016.75;;;31.53;39.69
12203;BME280;6164;42.178;24.622;2023-07-09T10:43:21;100039.53;;;31.62;38.48
12203;BME280;6164;42.178;24.622;2023-07-09T10:45:51;100085.19;;;31.57;35.90
12203;BME280;6164;42.178;24.622;2023-07-09T10:48:20;100084.84;;;31.45;37.04
12203;BME280;6164;42.178;24.622;2023-07-09T10:50:52;100089.75;;;30.96;36.75
12203;BME280;6164;42.178;24.622;2023-07-09T10:53:24;100065.84;;;31.11;38.42
12203;BME280;6164;42.178;24.622;2023-07-09T10:55:55;100048.97;;;31.33;38.22
12203;BME280;6164;42.178;24.622;2023-07-09T10:58:28;100029.38;;;31.49;38.41
12203;BME280;6164;42.178;24.622;2023-07-09T11:00:57;100028.47;;;31.72;38.49
12203;BME280;6164;42.178;24.622;2023-07-09T11:03:26;100031.81;;;31.69;38.07
12203;BME280;6164;42.178;24.622;2023-07-09T11:05:57;100039.31;;;31.77;37.35
12203;BME280;6164;42.178;24.622;2023-07-09T11:08:24;100063.06;;;31.58;37.53
12203;BME280;6164;42.178;24.622;2023-07-09T11:10:54;100050.09;;;31.50;38.11
12203;BME280;6164;42.178;24.622;2023-07-09T11:13:23;100023.63;;;31.51;38.68
12203;BME280;6164;42.178;24.622;2023-07-09T11:15:51;100031.34;;;31.62;38.05
12203;BME280;6164;42.178;24.622;2023-07-09T11:18:21;100015.72;;;31.68;39.11
12203;BME280;6164;42.178;24.622;2023-07-09T11:20:54;100024.22;;;31.66;38.72
12203;BME280;6164;42.178;24.622;2023-07-09T11:23:22;100012.91;;;31.36;38.82
12203;BME280;6164;42.178;24.622;2023-07-09T11:25:59;99982.81;;;31.59;38.95
12203;BME280;6164;42.178;24.622;2023-07-09T11:28:34;99994.91;;;31.90;38.62
12203;BME280;6164;42.178;24.622;2023-07-09T11:31:05;100010.81;;;31.83;38.70
12203;BME280;6164;42.178;24.622;2023-07-09T11:33:32;100002.22;;;31.58;38.54
12203;BME280;6164;42.178;24.622;2023-07-09T11:36:06;99995.63;;;31.77;38.25
12203;BME280;6164;42.178;24.622;2023-07-09T11:38:38;99988.28;;;31.78;39.03
12203;BME280;6164;42.178;24.622;2023-07-09T11:43:48;99977.31;;;32.29;38.28
12203;BME280;6164;42.178;24.622;2023-07-09T11:46:17;99984.88;;;32.32;38.81
12203;BME280;6164;42.178;24.622;2023-07-09T11:48:47;100008.47;;;31.77;38.09
12203;BME280;6164;42.178;24.622;2023-07-09T11:51:16;99980.34;;;31.76;38.00
12203;BME280;6164;42.178;24.622;2023-07-09T11:53:44;99988.50;;;32.13;37.77
12203;BME280;6164;42.178;24.622;2023-07-09T11:56:12;99976.59;;;32.37;38.15
12203;BME280;6164;42.178;24.622;2023-07-09T11:58:48;99984.25;;;32.53;37.78
12203;BME280;6164;42.178;24.622;2023-07-09T12:01:16;99999.91;;;32.48;36.93
12203;BME280;6164;42.178;24.622;2023-07-09T12:03:44;99999.53;;;32.54;36.99
12203;BME280;6164;42.178;24.622;2023-07-09T12:06:15;99965.19;;;32.89;38.13
12203;BME280;6164;42.178;24.622;2023-07-09T12:08:46;99988.56;;;33.22;36.81
12203;BME280;6164;42.178;24.622;2023-07-09T12:11:19;99998.00;;;33.65;35.46
12203;BME280;6164;42.178;24.622;2023-07-09T12:13:46;100015.50;;;33.78;35.62
12203;BME280;6164;42.178;24.622;2023-07-09T12:16:21;100027.75;;;33.58;35.29
12203;BME280;6164;42.178;24.622;2023-07-09T12:18:51;100033.59;;;33.16;35.85
12203;BME280;6164;42.178;24.622;2023-07-09T12:21:18;100012.22;;;33.18;36.85
12203;BME280;6164;42.178;24.622;2023-07-09T12:23:45;100032.44;;;32.63;35.46
12203;BME280;6164;42.178;24.622;2023-07-09T12:26:12;100007.84;;;32.76;35.99
12203;BME280;6164;42.178;24.622;2023-07-09T12:28:39;100012.22;;;33.18;35.21
12203;BME280;6164;42.178;24.622;2023-07-09T12:31:10;100040.06;;;33.20;34.02
12203;BME280;6164;42.178;24.622;2023-07-09T12:33:46;100021.72;;;33.20;34.82
12203;BME280;6164;42.178;24.622;2023-07-09T12:36:12;100003.59;;;33.60;35.67
12203;BME280;6164;42.178;24.622;2023-07-09T12:38:42;100014.22;;;33.97;34.23
12203;BME280;6164;42.178;24.622;2023-07-09T12:41:14;100026.00;;;34.20;34.37
12203;BME280;6164;42.178;24.622;2023-07-09T12:43:42;100011.59;;;33.92;34.64
12203;BME280;6164;42.178;24.622;2023-07-09T12:46:09;100016.06;;;33.88;34.85
12203;BME280;6164;42.178;24.622;2023-07-09T12:48:36;100007.28;;;33.56;35.90
12203;BME280;6164;42.178;24.622;2023-07-09T12:51:06;99986.97;;;33.57;35.43
12203;BME280;6164;42.178;24.622;2023-07-09T12:53:33;99988.34;;;33.32;35.66
12203;BME280;6164;42.178;24.622;2023-07-09T12:56:00;99970.25;;;33.09;36.08
12203;BME280;6164;42.178;24.622;2023-07-09T12:58:27;99962.88;;;33.31;36.50
12203;BME280;6164;42.178;24.622;2023-07-09T13:00:55;99952.84;;;33.41;35.79
12203;BME280;6164;42.178;24.622;2023-07-09T13:03:24;99960.56;;;33.38;36.00
12203;BME280;6164;42.178;24.622;2023-07-09T13:05:54;99952.94;;;33.49;36.04